TWA005 KLAX-KDFW
Flight info
| Callsign | TWA005 |
|---|---|
| Flight time | N/A |
| Altitude | 39000 |
| Route | DOTSS2 CNERY BLH ANGRY KA24Q TXO TURKI UKW8 |
| Aircraft | B741/H-SDFHIRWXY/L |
Departure
| Time | 2026-04-25 08:35 |
|---|---|
| Airport | Los Angeles International Airport (KLAX) |
Arrival
| Time | N/A |
|---|---|
| Airport | Dallas Fort Worth International Airport (KDFW) |
| Time | Latitude | Longitude | Altitude | Speed | Heading |
|---|---|---|---|---|---|
| 2026-04-25 08:23 | 33.94749 | -118.40389 | 122 ft | 0 kts | 202° |
| 2026-04-25 08:29 | 33.94753 | -118.40386 | 122 ft | 2 kts | 198° |
| 2026-04-25 08:30 | 33.94766 | -118.40385 | 122 ft | 2 kts | 173° |
| 2026-04-25 08:30 | 33.94781 | -118.40390 | 122 ft | 2 kts | 150° |
| 2026-04-25 08:30 | 33.94792 | -118.40402 | 122 ft | 2 kts | 127° |
| 2026-04-25 08:30 | 33.94799 | -118.40417 | 122 ft | 2 kts | 105° |
| 2026-04-25 08:31 | 33.94800 | -118.40435 | 122 ft | 2 kts | 83° |
| 2026-04-25 08:31 | 33.94799 | -118.40447 | 122 ft | 0 kts | 83° |
| 2026-04-25 08:31 | 33.94799 | -118.40449 | 122 ft | 0 kts | 83° |
| 2026-04-25 08:33 | 33.94803 | -118.40411 | 122 ft | 13 kts | 83° |
| 2026-04-25 08:33 | 33.94830 | -118.40305 | 121 ft | 13 kts | 27° |
| 2026-04-25 08:33 | 33.94892 | -118.40259 | 119 ft | 9 kts | 60° |
| 2026-04-25 08:34 | 33.94929 | -118.40191 | 119 ft | 8 kts | 33° |
| 2026-04-25 08:34 | 33.95003 | -118.40229 | 119 ft | 15 kts | 288° |
| 2026-04-25 08:34 | 33.94999 | -118.40343 | 119 ft | 20 kts | 263° |
| 2026-04-25 08:34 | 33.94957 | -118.40771 | 124 ft | 87 kts | 263° |
| 2026-04-25 08:35 | 33.94854 | -118.41773 | 127 ft | 151 kts | 263° |
| 2026-04-25 08:35 | 33.94740 | -118.43144 | 513 ft | 168 kts | 263° |
| 2026-04-25 08:35 | 33.94637 | -118.44546 | 1092 ft | 177 kts | 259° |
| 2026-04-25 08:35 | 33.94465 | -118.46086 | 1548 ft | 196 kts | 263° |
| 2026-04-25 08:36 | 33.94373 | -118.47809 | 2015 ft | 213 kts | 265° |
| 2026-04-25 08:36 | 33.94300 | -118.49641 | 2372 ft | 227 kts | 264° |
| 2026-04-25 08:36 | 33.94176 | -118.51596 | 2746 ft | 246 kts | 263° |
| 2026-04-25 08:36 | 33.94018 | -118.53738 | 3139 ft | 264 kts | 263° |
| 2026-04-25 08:37 | 33.93852 | -118.55936 | 3836 ft | 268 kts | 263° |
| 2026-04-25 08:37 | 33.93681 | -118.58170 | 4577 ft | 272 kts | 263° |
| 2026-04-25 08:37 | 33.93294 | -118.60407 | 5259 ft | 273 kts | 242° |
| 2026-04-25 08:37 | 33.92115 | -118.62108 | 5977 ft | 268 kts | 211° |
| 2026-04-25 08:38 | 33.90483 | -118.63139 | 6733 ft | 268 kts | 198° |
| 2026-04-25 08:38 | 33.88677 | -118.63669 | 7528 ft | 268 kts | 185° |
| 2026-04-25 08:38 | 33.86827 | -118.63812 | 8324 ft | 270 kts | 178° |
| 2026-04-25 08:38 | 33.84996 | -118.63638 | 9050 ft | 270 kts | 163° |
| 2026-04-25 08:39 | 33.83274 | -118.62806 | 9860 ft | 271 kts | 152° |
| 2026-04-25 08:39 | 33.81624 | -118.61681 | 10562 ft | 279 kts | 147° |
| 2026-04-25 08:39 | 33.79953 | -118.60400 | 10967 ft | 298 kts | 146° |
| 2026-04-25 08:39 | 33.78167 | -118.58972 | 11376 ft | 317 kts | 145° |
| 2026-04-25 08:40 | 33.76296 | -118.57461 | 11883 ft | 332 kts | 144° |
| 2026-04-25 08:40 | 33.74358 | -118.55890 | 12655 ft | 337 kts | 144° |
| 2026-04-25 08:40 | 33.72431 | -118.54304 | 13482 ft | 340 kts | 141° |
| 2026-04-25 08:40 | 33.70757 | -118.52336 | 14245 ft | 342 kts | 129° |
| 2026-04-25 08:41 | 33.69445 | -118.49936 | 15013 ft | 346 kts | 119° |
| 2026-04-25 08:41 | 33.68414 | -118.47337 | 15748 ft | 351 kts | 114° |
| 2026-04-25 08:41 | 33.67501 | -118.44584 | 16456 ft | 355 kts | 112° |
| 2026-04-25 08:41 | 33.66654 | -118.41815 | 17139 ft | 360 kts | 111° |
| 2026-04-25 08:42 | 33.65811 | -118.38987 | 17816 ft | 364 kts | 111° |
| 2026-04-25 08:42 | 33.65034 | -118.36086 | 18462 ft | 370 kts | 105° |
| 2026-04-25 08:42 | 33.64634 | -118.33004 | 19123 ft | 376 kts | 98° |
| 2026-04-25 08:42 | 33.64481 | -118.29868 | 19782 ft | 382 kts | 95° |
| 2026-04-25 08:43 | 33.64436 | -118.26677 | 20432 ft | 387 kts | 93° |
| 2026-04-25 08:43 | 33.64430 | -118.23407 | 21082 ft | 392 kts | 93° |
| 2026-04-25 08:43 | 33.64434 | -118.20167 | 21704 ft | 397 kts | 93° |
| 2026-04-25 08:43 | 33.64440 | -118.16857 | 22350 ft | 402 kts | 93° |
| 2026-04-25 08:44 | 33.64443 | -118.13486 | 22970 ft | 407 kts | 93° |
| 2026-04-25 08:44 | 33.64444 | -118.10126 | 23571 ft | 412 kts | 93° |
| 2026-04-25 08:44 | 33.64444 | -118.06683 | 24168 ft | 416 kts | 93° |
| 2026-04-25 08:44 | 33.64442 | -118.03219 | 24762 ft | 421 kts | 93° |
| 2026-04-25 08:45 | 33.64440 | -117.99716 | 25338 ft | 425 kts | 93° |
| 2026-04-25 08:45 | 33.64436 | -117.96189 | 25910 ft | 430 kts | 93° |
| 2026-04-25 08:45 | 33.64432 | -117.92604 | 26471 ft | 435 kts | 93° |
| 2026-04-25 08:45 | 33.64426 | -117.88963 | 27051 ft | 439 kts | 93° |
| 2026-04-25 08:46 | 33.64420 | -117.85396 | 27610 ft | 444 kts | 93° |
| 2026-04-25 08:46 | 33.64317 | -117.81712 | 28100 ft | 446 kts | 99° |
| 2026-04-25 08:46 | 33.63816 | -117.78056 | 28615 ft | 448 kts | 104° |
| 2026-04-25 08:46 | 33.63096 | -117.74442 | 29083 ft | 451 kts | 107° |
| 2026-04-25 08:47 | 33.62277 | -117.70850 | 29539 ft | 454 kts | 108° |
| 2026-04-25 08:47 | 33.61396 | -117.67188 | 29993 ft | 457 kts | 109° |
| 2026-04-25 08:47 | 33.60504 | -117.63551 | 30402 ft | 461 kts | 109° |
| 2026-04-25 08:47 | 33.59593 | -117.59862 | 30769 ft | 464 kts | 109° |
| 2026-04-25 08:48 | 33.58676 | -117.56158 | 31128 ft | 467 kts | 109° |
| 2026-04-25 08:48 | 33.57764 | -117.52469 | 31446 ft | 471 kts | 109° |
| 2026-04-25 08:48 | 33.56872 | -117.48864 | 31765 ft | 473 kts | 109° |
| 2026-04-25 08:48 | 33.55933 | -117.45073 | 32060 ft | 476 kts | 109° |
| 2026-04-25 08:49 | 33.54990 | -117.41270 | 32355 ft | 479 kts | 109° |
| 2026-04-25 08:49 | 33.54051 | -117.37485 | 32667 ft | 481 kts | 109° |
| 2026-04-25 08:49 | 33.53108 | -117.33694 | 32960 ft | 483 kts | 109° |
| 2026-04-25 08:49 | 33.52399 | -117.30895 | 33150 ft | 485 kts | 110° |
| 2026-04-25 08:50 | 33.51435 | -117.27055 | 33424 ft | 488 kts | 108° |
| 2026-04-25 08:50 | 33.50792 | -117.23141 | 33677 ft | 493 kts | 100° |
| 2026-04-25 08:50 | 33.50462 | -117.19093 | 33927 ft | 497 kts | 96° |
| 2026-04-25 08:50 | 33.50308 | -117.14973 | 34193 ft | 500 kts | 94° |
| 2026-04-25 08:51 | 33.50238 | -117.10834 | 34458 ft | 500 kts | 93° |
| 2026-04-25 08:51 | 33.50198 | -117.06711 | 34657 ft | 501 kts | 93° |
| 2026-04-25 08:51 | 33.50162 | -117.02576 | 34708 ft | 504 kts | 94° |
| 2026-04-25 08:52 | 33.50066 | -116.94097 | 34721 ft | 518 kts | 94° |
| 2026-04-25 08:52 | 33.49949 | -116.85507 | 34717 ft | 523 kts | 94° |
| 2026-04-25 08:53 | 33.49821 | -116.76817 | 34668 ft | 521 kts | 94° |
| 2026-04-25 08:53 | 33.49686 | -116.68209 | 34613 ft | 521 kts | 94° |
| 2026-04-25 08:54 | 33.49544 | -116.59583 | 34564 ft | 521 kts | 94° |
| 2026-04-25 08:54 | 33.49396 | -116.50934 | 34560 ft | 521 kts | 94° |
| 2026-04-25 08:55 | 33.49246 | -116.42325 | 34559 ft | 522 kts | 94° |
| 2026-04-25 08:55 | 33.49120 | -116.33717 | 34559 ft | 521 kts | 95° |
| 2026-04-25 08:56 | 33.48957 | -116.25085 | 34560 ft | 520 kts | 95° |
| 2026-04-25 08:56 | 33.48800 | -116.16479 | 34560 ft | 522 kts | 95° |
| 2026-04-25 08:57 | 33.48711 | -116.07857 | 34556 ft | 523 kts | 90° |
| 2026-04-25 08:57 | 33.49910 | -115.99268 | 34561 ft | 529 kts | 77° |
| 2026-04-25 08:58 | 33.52153 | -115.90920 | 34560 ft | 531 kts | 73° |
| 2026-04-25 08:58 | 33.54636 | -115.82635 | 34555 ft | 531 kts | 72° |
| 2026-04-25 08:59 | 33.57113 | -115.74300 | 34548 ft | 531 kts | 73° |
| 2026-04-25 08:59 | 33.59547 | -115.65973 | 34541 ft | 531 kts | 73° |
| 2026-04-25 09:00 | 33.61813 | -115.57579 | 34654 ft | 524 kts | 81° |
| 2026-04-25 09:00 | 33.62317 | -115.53332 | 34773 ft | 522 kts | 89° |
| 2026-04-25 09:00 | 33.62445 | -115.48959 | 34794 ft | 524 kts | 93° |
| 2026-04-25 09:01 | 33.62197 | -115.40237 | 34781 ft | 522 kts | 96° |
| 2026-04-25 09:01 | 33.61820 | -115.31666 | 34778 ft | 517 kts | 97° |
| 2026-04-25 09:02 | 33.61432 | -115.23055 | 34780 ft | 521 kts | 97° |
| 2026-04-25 09:02 | 33.61087 | -115.14397 | 34778 ft | 522 kts | 97° |
| 2026-04-25 09:03 | 33.60754 | -115.05627 | 34780 ft | 532 kts | 97° |
| 2026-04-25 09:03 | 33.60414 | -114.96741 | 34780 ft | 543 kts | 97° |
| 2026-04-25 09:04 | 33.60061 | -114.87627 | 34781 ft | 549 kts | 97° |
| 2026-04-25 09:04 | 33.59707 | -114.78561 | 34778 ft | 542 kts | 98° |
| 2026-04-25 09:05 | 33.59169 | -114.69639 | 34780 ft | 542 kts | 100° |
| 2026-04-25 09:05 | 33.58489 | -114.60660 | 34779 ft | 543 kts | 100° |
| 2026-04-25 09:06 | 33.57801 | -114.51668 | 34779 ft | 541 kts | 100° |
| 2026-04-25 09:06 | 33.57119 | -114.42701 | 34779 ft | 542 kts | 100° |
| 2026-04-25 09:07 | 33.56438 | -114.33778 | 34778 ft | 542 kts | 101° |
| 2026-04-25 09:07 | 33.55726 | -114.25050 | 34779 ft | 541 kts | 101° |
| 2026-04-25 09:08 | 33.55003 | -114.16135 | 34781 ft | 541 kts | 101° |
| 2026-04-25 09:08 | 33.54296 | -114.07201 | 34785 ft | 541 kts | 101° |
| 2026-04-25 09:09 | 33.53583 | -113.98190 | 34790 ft | 541 kts | 101° |
| 2026-04-25 09:09 | 33.52872 | -113.89270 | 34792 ft | 542 kts | 101° |
| 2026-04-25 09:10 | 33.52152 | -113.80333 | 34794 ft | 541 kts | 101° |
| 2026-04-25 09:10 | 33.51830 | -113.76363 | 34794 ft | 542 kts | 101° |
| 2026-04-25 09:11 | 33.51104 | -113.67472 | 34803 ft | 541 kts | 101° |
| 2026-04-25 09:11 | 33.50568 | -113.60950 | 34812 ft | 541 kts | 101° |
| 2026-04-25 09:12 | 33.49823 | -113.51977 | 34824 ft | 541 kts | 101° |
| 2026-04-25 09:12 | 33.49078 | -113.43070 | 34829 ft | 541 kts | 101° |
| 2026-04-25 09:13 | 33.48326 | -113.34154 | 34828 ft | 541 kts | 101° |
| 2026-04-25 09:13 | 33.47526 | -113.25230 | 34829 ft | 540 kts | 102° |
| 2026-04-25 09:14 | 33.46728 | -113.16309 | 34830 ft | 541 kts | 101° |
| 2026-04-25 09:14 | 33.45950 | -113.07402 | 34829 ft | 541 kts | 101° |
| 2026-04-25 09:15 | 33.45170 | -112.98461 | 34829 ft | 541 kts | 101° |
| 2026-04-25 09:15 | 33.44375 | -112.89450 | 34830 ft | 547 kts | 101° |
| 2026-04-25 09:16 | 33.43569 | -112.80384 | 34829 ft | 551 kts | 100° |
| 2026-04-25 09:16 | 33.42755 | -112.71268 | 34829 ft | 551 kts | 100° |
| 2026-04-25 09:17 | 33.41522 | -112.57616 | 34829 ft | 550 kts | 100° |
| 2026-04-25 09:18 | 33.40697 | -112.48589 | 34827 ft | 551 kts | 100° |
| 2026-04-25 09:18 | 33.39859 | -112.39494 | 34819 ft | 551 kts | 100° |
| 2026-04-25 09:19 | 33.39010 | -112.30478 | 34811 ft | 550 kts | 101° |
| 2026-04-25 09:19 | 33.39001 | -112.21316 | 34810 ft | 559 kts | 84° |
| 2026-04-25 09:20 | 33.40864 | -112.12305 | 34811 ft | 564 kts | 73° |
| 2026-04-25 09:20 | 33.43454 | -112.03486 | 34810 ft | 562 kts | 71° |
| 2026-04-25 09:21 | 33.46088 | -111.94689 | 34818 ft | 563 kts | 71° |
| 2026-04-25 09:21 | 33.48645 | -111.85876 | 34828 ft | 563 kts | 72° |
| 2026-04-25 09:22 | 33.51155 | -111.77093 | 34833 ft | 563 kts | 72° |
| 2026-04-25 09:22 | 33.53682 | -111.68211 | 34832 ft | 563 kts | 72° |
| 2026-04-25 09:23 | 33.56193 | -111.59365 | 34831 ft | 563 kts | 72° |
| 2026-04-25 09:23 | 33.58705 | -111.50494 | 34830 ft | 563 kts | 72° |
| 2026-04-25 09:24 | 33.61194 | -111.41684 | 34830 ft | 563 kts | 72° |
| 2026-04-25 09:24 | 33.63689 | -111.32805 | 34829 ft | 563 kts | 72° |
| 2026-04-25 09:25 | 33.66148 | -111.23873 | 34849 ft | 562 kts | 73° |
| 2026-04-25 09:25 | 33.68586 | -111.15055 | 34885 ft | 563 kts | 72° |
| 2026-04-25 09:26 | 33.71069 | -111.06136 | 34930 ft | 564 kts | 72° |
| 2026-04-25 09:26 | 33.73558 | -110.97182 | 34963 ft | 573 kts | 72° |
| 2026-04-25 09:27 | 33.76075 | -110.88102 | 34977 ft | 581 kts | 72° |
| 2026-04-25 09:27 | 33.78618 | -110.78896 | 34992 ft | 581 kts | 72° |
| 2026-04-25 09:28 | 33.81138 | -110.69743 | 35015 ft | 578 kts | 72° |
| 2026-04-25 09:28 | 33.83663 | -110.60541 | 35037 ft | 580 kts | 72° |
| 2026-04-25 09:29 | 33.86172 | -110.51363 | 35039 ft | 580 kts | 72° |
| 2026-04-25 09:29 | 33.88670 | -110.42197 | 35038 ft | 579 kts | 72° |
| 2026-04-25 09:30 | 33.91170 | -110.32987 | 35037 ft | 580 kts | 72° |
| 2026-04-25 09:30 | 33.93602 | -110.23832 | 35039 ft | 579 kts | 72° |
| 2026-04-25 09:31 | 33.96070 | -110.14573 | 35039 ft | 580 kts | 72° |
| 2026-04-25 09:31 | 33.98524 | -110.05432 | 35038 ft | 580 kts | 72° |
| 2026-04-25 09:32 | 34.00384 | -109.96047 | 35040 ft | 578 kts | 82° |
| 2026-04-25 09:32 | 34.01440 | -109.86492 | 35041 ft | 577 kts | 85° |
| 2026-04-25 09:33 | 34.02298 | -109.76939 | 35049 ft | 577 kts | 86° |
| 2026-04-25 09:33 | 34.03192 | -109.67323 | 35056 ft | 577 kts | 85° |
| 2026-04-25 09:34 | 34.04109 | -109.57759 | 35059 ft | 578 kts | 85° |
| 2026-04-25 09:34 | 34.05030 | -109.48169 | 35059 ft | 577 kts | 85° |
| 2026-04-25 09:35 | 34.05937 | -109.38620 | 35060 ft | 577 kts | 85° |
| 2026-04-25 09:35 | 34.06815 | -109.29101 | 35059 ft | 576 kts | 86° |
| 2026-04-25 09:36 | 34.07666 | -109.19476 | 35060 ft | 576 kts | 86° |
| 2026-04-25 09:36 | 34.08533 | -109.09912 | 35059 ft | 579 kts | 85° |
| 2026-04-25 09:37 | 34.09421 | -109.00214 | 35059 ft | 581 kts | 85° |
| 2026-04-25 09:37 | 34.10296 | -108.90600 | 35060 ft | 581 kts | 84° |
| 2026-04-25 09:38 | 34.11166 | -108.80952 | 35059 ft | 581 kts | 85° |
| 2026-04-25 09:38 | 34.12029 | -108.71268 | 35061 ft | 581 kts | 84° |
| 2026-04-25 09:39 | 34.12880 | -108.61644 | 35060 ft | 581 kts | 84° |
| 2026-04-25 09:39 | 34.13727 | -108.51988 | 35059 ft | 581 kts | 84° |
| 2026-04-25 09:40 | 34.14986 | -108.37451 | 35057 ft | 581 kts | 84° |
| 2026-04-25 09:40 | 34.15774 | -108.27973 | 35050 ft | 580 kts | 85° |
| 2026-04-25 09:41 | 34.16551 | -108.18281 | 35043 ft | 581 kts | 85° |
| 2026-04-25 09:41 | 34.17353 | -108.08569 | 35036 ft | 581 kts | 85° |
| 2026-04-25 09:42 | 34.18086 | -107.99783 | 35032 ft | 581 kts | 85° |
| 2026-04-25 09:42 | 34.18890 | -107.90071 | 35009 ft | 581 kts | 85° |
| 2026-04-25 09:43 | 34.19682 | -107.80396 | 34977 ft | 581 kts | 85° |
| 2026-04-25 09:43 | 34.20457 | -107.70766 | 35000 ft | 580 kts | 85° |
| 2026-04-25 09:44 | 34.21233 | -107.61096 | 35063 ft | 581 kts | 85° |
| 2026-04-25 09:44 | 34.22006 | -107.51394 | 35129 ft | 581 kts | 85° |
| 2026-04-25 09:45 | 34.22766 | -107.41706 | 35205 ft | 580 kts | 85° |
| 2026-04-25 09:45 | 34.23493 | -107.32308 | 35257 ft | 581 kts | 86° |
| 2026-04-25 09:46 | 34.24191 | -107.22602 | 35279 ft | 580 kts | 86° |
| 2026-04-25 09:46 | 34.24906 | -107.12861 | 35298 ft | 580 kts | 86° |
| 2026-04-25 09:47 | 34.25633 | -107.03171 | 35205 ft | 582 kts | 86° |
| 2026-04-25 09:47 | 34.25993 | -106.98360 | 35094 ft | 582 kts | 85° |
| 2026-04-25 09:47 | 34.26325 | -106.93909 | 34995 ft | 581 kts | 85° |
| 2026-04-25 09:48 | 34.27041 | -106.84219 | 34951 ft | 579 kts | 84° |
| 2026-04-25 09:48 | 34.27668 | -106.75629 | 34950 ft | 582 kts | 84° |
| 2026-04-25 09:49 | 34.28370 | -106.65932 | 34950 ft | 581 kts | 84° |
| 2026-04-25 09:49 | 34.29063 | -106.56233 | 34950 ft | 581 kts | 84° |
| 2026-04-25 09:50 | 34.29751 | -106.46505 | 34950 ft | 581 kts | 84° |
| 2026-04-25 09:50 | 34.30432 | -106.36755 | 34951 ft | 581 kts | 84° |
| 2026-04-25 09:51 | 34.31059 | -106.27276 | 34949 ft | 580 kts | 85° |
| 2026-04-25 09:51 | 34.31679 | -106.17578 | 34952 ft | 581 kts | 85° |
| 2026-04-25 09:52 | 34.32325 | -106.07828 | 34953 ft | 581 kts | 85° |
| 2026-04-25 09:52 | 34.32973 | -105.98118 | 34969 ft | 581 kts | 85° |
| 2026-04-25 09:53 | 34.33614 | -105.88427 | 34990 ft | 581 kts | 85° |
| 2026-04-25 09:53 | 34.34248 | -105.78687 | 35009 ft | 581 kts | 85° |
| 2026-04-25 09:54 | 34.34875 | -105.68930 | 35011 ft | 581 kts | 85° |
| 2026-04-25 09:54 | 34.35492 | -105.59225 | 35011 ft | 581 kts | 85° |
| 2026-04-25 09:55 | 34.36100 | -105.49522 | 34980 ft | 581 kts | 85° |
| 2026-04-25 09:55 | 34.36706 | -105.39732 | 34931 ft | 581 kts | 85° |
| 2026-04-25 09:56 | 34.37283 | -105.30075 | 34886 ft | 580 kts | 86° |
| 2026-04-25 09:56 | 34.37820 | -105.20348 | 34873 ft | 581 kts | 86° |
| 2026-04-25 09:57 | 34.38382 | -105.10586 | 34862 ft | 581 kts | 85° |
| 2026-04-25 09:57 | 34.38950 | -105.00864 | 34860 ft | 583 kts | 84° |
| 2026-04-25 09:58 | 34.39522 | -104.91026 | 34860 ft | 587 kts | 84° |
| 2026-04-25 09:58 | 34.40086 | -104.81167 | 34860 ft | 588 kts | 84° |
| 2026-04-25 09:59 | 34.40640 | -104.71317 | 34859 ft | 587 kts | 84° |
| 2026-04-25 09:59 | 34.41186 | -104.61479 | 34860 ft | 587 kts | 84° |
| 2026-04-25 10:00 | 34.41723 | -104.51657 | 34860 ft | 588 kts | 84° |
| 2026-04-25 10:00 | 34.42256 | -104.41750 | 34860 ft | 587 kts | 84° |
| 2026-04-25 10:01 | 34.42771 | -104.31966 | 34857 ft | 587 kts | 85° |
| 2026-04-25 10:01 | 34.43236 | -104.22109 | 34860 ft | 588 kts | 85° |
| 2026-04-25 10:02 | 34.43718 | -104.12234 | 34858 ft | 588 kts | 84° |
| 2026-04-25 10:02 | 34.44213 | -104.02396 | 34848 ft | 587 kts | 84° |
| 2026-04-25 10:03 | 34.44707 | -103.92537 | 34836 ft | 588 kts | 84° |
| 2026-04-25 10:03 | 34.45193 | -103.82653 | 34830 ft | 588 kts | 84° |
| 2026-04-25 10:04 | 34.45668 | -103.72792 | 34830 ft | 588 kts | 84° |
| 2026-04-25 10:04 | 34.46134 | -103.62938 | 34829 ft | 588 kts | 84° |
| 2026-04-25 10:05 | 34.46594 | -103.53061 | 34830 ft | 588 kts | 85° |
| 2026-04-25 10:05 | 34.47046 | -103.43192 | 34829 ft | 588 kts | 84° |
| 2026-04-25 10:06 | 34.47489 | -103.33294 | 34828 ft | 588 kts | 85° |
| 2026-04-25 10:06 | 34.47876 | -103.23498 | 34836 ft | 589 kts | 85° |
| 2026-04-25 10:07 | 34.48271 | -103.13655 | 34841 ft | 587 kts | 85° |
| 2026-04-25 10:07 | 34.48684 | -103.03822 | 34845 ft | 582 kts | 85° |
| 2026-04-25 10:08 | 34.49093 | -102.94065 | 34849 ft | 578 kts | 84° |
| 2026-04-25 10:08 | 34.49300 | -102.84350 | 34850 ft | 580 kts | 90° |
| 2026-04-25 10:09 | 34.48662 | -102.74596 | 34850 ft | 583 kts | 96° |
| 2026-04-25 10:09 | 34.47635 | -102.64884 | 34847 ft | 582 kts | 97° |
| 2026-04-25 10:10 | 34.46585 | -102.55233 | 34839 ft | 582 kts | 96° |
| 2026-04-25 10:10 | 34.45559 | -102.45480 | 34831 ft | 582 kts | 96° |
| 2026-04-25 10:11 | 34.44555 | -102.35852 | 34830 ft | 582 kts | 96° |
| 2026-04-25 10:11 | 34.43504 | -102.26184 | 34829 ft | 582 kts | 97° |
| 2026-04-25 10:12 | 34.42431 | -102.16441 | 34828 ft | 583 kts | 97° |
| 2026-04-25 10:13 | 34.40861 | -102.01877 | 34823 ft | 582 kts | 97° |
| 2026-04-25 10:13 | 34.40350 | -101.97140 | 34821 ft | 582 kts | 97° |
| 2026-04-25 10:14 | 34.38750 | -101.82413 | 34820 ft | 582 kts | 97° |
| 2026-04-25 10:14 | 34.37690 | -101.72755 | 34820 ft | 582 kts | 97° |
| 2026-04-25 10:15 | 34.36615 | -101.63046 | 34820 ft | 582 kts | 97° |
| 2026-04-25 10:15 | 34.35541 | -101.53413 | 34820 ft | 582 kts | 97° |
| 2026-04-25 10:16 | 34.34449 | -101.43687 | 34820 ft | 582 kts | 97° |
| 2026-04-25 10:16 | 34.33364 | -101.34093 | 34817 ft | 582 kts | 97° |
| 2026-04-25 10:17 | 34.32220 | -101.24441 | 34820 ft | 582 kts | 98° |
| 2026-04-25 10:17 | 34.31074 | -101.14745 | 34820 ft | 583 kts | 97° |
| 2026-04-25 10:18 | 34.29956 | -101.05128 | 34820 ft | 582 kts | 97° |
| 2026-04-25 10:18 | 34.28838 | -100.95499 | 34818 ft | 581 kts | 97° |
| 2026-04-25 10:19 | 34.27712 | -100.85860 | 34814 ft | 578 kts | 96° |
| 2026-04-25 10:19 | 34.26579 | -100.76247 | 34810 ft | 576 kts | 96° |
| 2026-04-25 10:20 | 34.25451 | -100.66734 | 34810 ft | 577 kts | 96° |
| 2026-04-25 10:20 | 34.24308 | -100.57166 | 34810 ft | 578 kts | 96° |
| 2026-04-25 10:21 | 34.23155 | -100.47588 | 34811 ft | 577 kts | 95° |
| 2026-04-25 10:21 | 34.22000 | -100.38062 | 34810 ft | 574 kts | 95° |
| 2026-04-25 10:22 | 34.20786 | -100.28525 | 34808 ft | 576 kts | 99° |
| 2026-04-25 10:22 | 34.18836 | -100.19173 | 34810 ft | 579 kts | 106° |
| 2026-04-25 10:23 | 34.16388 | -100.09925 | 34809 ft | 578 kts | 107° |
| 2026-04-25 10:23 | 34.13896 | -100.00741 | 34810 ft | 578 kts | 107° |
| 2026-04-25 10:24 | 34.11450 | -99.91581 | 34810 ft | 579 kts | 107° |
| 2026-04-25 10:24 | 34.09004 | -99.82367 | 34810 ft | 578 kts | 107° |
| 2026-04-25 10:25 | 34.06544 | -99.73126 | 34795 ft | 579 kts | 107° |
| 2026-04-25 10:25 | 34.04091 | -99.63947 | 34778 ft | 578 kts | 107° |
| 2026-04-25 10:26 | 34.01618 | -99.54730 | 34765 ft | 578 kts | 107° |
| 2026-04-25 10:26 | 33.99154 | -99.45582 | 34767 ft | 578 kts | 107° |
| 2026-04-25 10:26 | 33.97924 | -99.41026 | 34516 ft | 584 kts | 107° |
| 2026-04-25 10:27 | 33.96657 | -99.36334 | 34062 ft | 586 kts | 107° |
| 2026-04-25 10:27 | 33.95628 | -99.32544 | 33579 ft | 580 kts | 108° |
| 2026-04-25 10:27 | 33.94286 | -99.27685 | 32917 ft | 577 kts | 108° |
| 2026-04-25 10:27 | 33.92994 | -99.23027 | 32282 ft | 580 kts | 108° |
| 2026-04-25 10:28 | 33.91738 | -99.18478 | 31664 ft | 582 kts | 108° |
| 2026-04-25 10:28 | 33.90469 | -99.13856 | 31038 ft | 582 kts | 108° |
| 2026-04-25 10:28 | 33.89278 | -99.09503 | 30505 ft | 580 kts | 108° |
| 2026-04-25 10:28 | 33.88002 | -99.04847 | 29807 ft | 579 kts | 108° |
| 2026-04-25 10:29 | 33.86771 | -99.00352 | 29130 ft | 574 kts | 109° |
| 2026-04-25 10:29 | 33.85552 | -98.95910 | 28456 ft | 571 kts | 109° |
| 2026-04-25 10:29 | 33.84319 | -98.91425 | 27772 ft | 569 kts | 109° |
| 2026-04-25 10:29 | 33.83687 | -98.89127 | 27420 ft | 569 kts | 109° |